Banning, CA

6:08 PM PDT on July 29, 2015 (GMT -0700)
Aspen Ln | | Change Station
CLOSE
Current Station
Personal Weather Station
Location: Banning, CA
Elevation: 2648 ft
Nearby Weather Stations
Active Advisory: Flash Flood Warning

Elev 2648 ft 33.94 °N, 116.92 °W | Updated 3 minutes ago

Partly Cloudy
Partly Cloudy
95.0 °F
Feels Like 94 °F
N
2.7
Wind Variable Wind from North

Today
High -- | Low -- °F
--% Chance of Precip.
Yesterday
High -- | Low -- °F
Precip. -- in
5:56 AM 7:50 PM
Waxing Gibbous, 97% visible
Pressure 29.88 in
Visibility 10.0 miles
Clouds Clear
Heat Index 94 °F
Dew Point 58 °F
Humidity 29%
Rainfall 0.00 in
Snow Depth Not available.
UV 2 out of 12
Pollen 3.60 out of 12
Air Quality Not available.
Flu Activity Not available.
METAR KRIV 300058Z AUTO 32012KT 10SM CLR 33/18 A2992 RMK AO2 SLP117 T03280180

More Conditions Fewer Conditions

Pressure 29.88 in
Visibility 10.0 miles
Clouds Clear
Heat Index 94 °F
Dew Point 58 °F
Humidity 29%
Rainfall 0.00 in
Snow Depth Not available.
UV 2 out of 12
Pollen 3.60 out of 12
Air Quality Not available.
Flu Activity Not available.
METAR KRIV 300058Z AUTO 32012KT 10SM CLR 33/18 A2992 RMK AO2 SLP117 T03280180

More Conditions Fewer Conditions

10-Day Weather Forecast

×

Almanac

Astronomy

Jul. 29, 2015 Rise Set
Actual Time
Civil Twilight
Nautical Twilight
Astronomical Twilight
Moon
Length of Visible Light
Length of Day
Tomorrow will be .
, % of the Moon is Illuminated

Today's Extremes

State Highs State Lows

Community

WunderPhotos

Upload Photos

1,842,236 photos uploaded!

WunderBlogs® & News

Nearby

Air Quality

  Air Quality AQ Index Pollutant
Not available.

Snow Depth

Station Depth Elevation

Earthquake Activity

City Distance Mag. Time & Date
Minimum magnitude displayed is 2.5.

Coastal Water Temperatures

Place Temperature

Stations

Nearby Weather Stations

Station Location Temp. Windchill Dew Point Humidity Wind Precip. Elev Updated Type
                   
Flash Flood Warning
Statement as of 4:11 PM PDT on July 29, 2015

The National Weather Service in San Diego has issued a

* Flash Flood Warning for...
Riverside County in Southern California...

* until 715 PM PDT

* at 410 PM PDT... Doppler radar indicated a thunderstorm producing
heavy rain across the warned area. Flash flooding will likely begin
shortly.

* Some locations that will likely experience flooding include...
Hwy 74 between Hemet and Mountain Center... Valle Vista and saboba
Indian reservation.

Precautionary/preparedness actions...

Move to higher ground now. Act quickly to protect your life.


Lat... Lon 3384 11684 3375 11678 3368 11676 3365 11687
      3382 11695


Jjt